| time (UTC) | temp F | wind direction | speed MPH | gust MPH | rain 1hr in | rain 24hr in | rain mn in | humidity % | barometer mb |
| 20260507015637 | 69 | 349 | 3.0 | 9.0 | 0.09 | 0.31 | 0.31 | 89 | 1014.0 |
| 20260507015130 | 70 | 348 | 4.0 | 9.0 | 0.20 | 0.31 | 0.31 | 89 | 1014.3 |
| 20260507014625 | 70 | 277 | 2.0 | 7.0 | 0.22 | 0.29 | 0.30 | 89 | 1014.0 |
| 20260507014119 | 70 | 330 | 0.0 | 2.0 | 0.21 | 0.28 | 0.28 | 88 | 1013.0 |
| 20260507013834 | 71 | 330 | 0.0 | 1.0 | 0.21 | 0.28 | 0.28 | 88 | 1012.8 |
| 20260507013106 | 71 | 330 | 0.0 | 1.0 | 0.21 | 0.28 | 0.28 | 87 | 1012.8 |
| 20260507012602 | 71 | 330 | 0.0 | 1.0 | 0.21 | 0.28 | 0.28 | 86 | 1012.8 |
| 20260507012054 | 71 | 330 | 0.0 | 1.0 | 0.21 | 0.28 | 0.28 | 86 | 1012.9 |
| 20260507011549 | 71 | 330 | 0.0 | 2.0 | 0.21 | 0.28 | 0.28 | 85 | 1013.0 |
| 20260507011043 | 71 | 330 | 2.0 | 6.0 | 0.20 | 0.27 | 0.27 | 85 | 1013.2 |
| 20260507010537 | 72 | 330 | 2.0 | 6.0 | 0.20 | 0.27 | 0.27 | 84 | 1013.1 |
| 20260507010031 | 72 | 317 | 2.0 | 5.0 | 0.18 | 0.25 | 0.25 | 83 | 1013.3 |
| 20260507005524 | 73 | 331 | 3.0 | 6.0 | 0.14 | 0.21 | 0.22 | 83 | 1013.2 |
| 20260507005019 | 74 | 331 | 3.0 | 6.0 | 0.01 | 0.08 | 0.08 | 80 | 1013.7 |
| 20260507004512 | 74 | 305 | 2.0 | 4.0 | 0.00 | 0.07 | 0.07 | 78 | 1013.2 |
| 20260507004006 | 75 | 301 | 1.0 | 2.0 | 0.00 | 0.07 | 0.07 | 77 | 1012.6 |
| 20260507003501 | 75 | 301 | 1.0 | 2.0 | 0.00 | 0.07 | 0.07 | 74 | 1012.2 |
| 20260507002954 | 76 | 301 | 1.0 | 2.0 | 0.00 | 0.07 | 0.07 | 74 | 1012.0 |
| 20260507002449 | 76 | 301 | 0.0 | 1.0 | 0.00 | 0.07 | 0.07 | 72 | 1012.1 |
| 20260507002202 | 76 | 301 | 0.0 | 2.0 | 0.00 | 0.07 | 0.07 | 69 | 1012.0 |
| 20260507001437 | 76 | 301 | 0.0 | 2.0 | 0.00 | 0.07 | 0.07 | 68 | 1011.9 |
| 20260507000931 | 76 | 301 | 0.0 | 2.0 | 0.00 | 0.07 | 0.07 | 67 | 1012.3 |
| 20260507000427 | 76 | 301 | 0.0 | 2.0 | 0.00 | 0.07 | 0.07 | 67 | 1012.1 |
| 20260506235920 | 76 | 301 | 0.0 | 1.0 | 0.00 | 0.07 | 0.07 | 67 | 1012.1 |
| 20260506235412 | 76 | 301 | 0.0 | 1.0 | 0.00 | 0.07 | 0.07 | 67 | 1012.1 |
| 20260506234908 | 77 | 301 | 0.0 | 1.0 | 0.00 | 0.07 | 0.07 | 67 | 1012.1 |
| 20260506234400 | 77 | 301 | 0.0 | 1.0 | 0.00 | 0.07 | 0.07 | 66 | 1012.1 |
| 20260506233855 | 77 | 301 | 1.0 | 4.0 | 0.00 | 0.07 | 0.07 | 66 | 1012.1 |
| 20260506233349 | 77 | 301 | 1.0 | 4.0 | 0.00 | 0.07 | 0.07 | 66 | 1012.0 |
| 20260506232843 | 77 | 263 | 1.0 | 2.0 | 0.00 | 0.07 | 0.07 | 66 | 1012.3 |
| 20260506232336 | 77 | 263 | 1.0 | 3.0 | 0.00 | 0.07 | 0.07 | 66 | 1012.3 |
| 20260506231831 | 77 | 263 | 1.0 | 3.0 | 0.00 | 0.07 | 0.07 | 66 | 1012.3 |
| 20260506231330 | 77 | 264 | 1.0 | 3.0 | 0.00 | 0.07 | 0.07 | 65 | 1012.3 |
| 20260506230831 | 77 | 264 | 2.0 | 4.0 | 0.00 | 0.07 | 0.07 | 66 | 1012.4 |
| 20260506230331 | 78 | 264 | 3.0 | 6.0 | 0.00 | 0.07 | 0.07 | 66 | 1012.4 |
| 20260506225831 | 78 | 264 | 3.0 | 6.0 | 0.00 | 0.07 | 0.07 | 65 | 1012.5 |
| 20260506225331 | 78 | 254 | 3.0 | 6.0 | 0.00 | 0.07 | 0.07 | 65 | 1012.3 |
| 20260506224831 | 78 | 266 | 3.0 | 7.0 | 0.00 | 0.07 | 0.07 | 65 | 1012.2 |
| 20260506224553 | 78 | 272 | 3.0 | 7.0 | 0.00 | 0.07 | 0.07 | 64 | 1012.4 |
| 20260506223831 | 78 | 230 | 3.0 | 7.0 | 0.00 | 0.07 | 0.07 | 64 | 1012.4 |
| 20260506223331 | 78 | 288 | 3.0 | 7.0 | 0.00 | 0.07 | 0.07 | 65 | 1012.5 |
| 20260506222831 | 78 | 267 | 4.0 | 9.0 | 0.00 | 0.07 | 0.07 | 65 | 1012.6 |
| 20260506222331 | 78 | 290 | 4.0 | 9.0 | 0.00 | 0.07 | 0.07 | 65 | 1012.6 |
| 20260506221831 | 78 | 276 | 4.0 | 9.0 | 0.00 | 0.07 | 0.07 | 64 | 1012.6 |
| 20260506221331 | 78 | 273 | 4.0 | 9.0 | 0.00 | 0.07 | 0.07 | 64 | 1012.5 |
| 20260506221055 | 78 | 278 | 4.0 | 9.0 | 0.00 | 0.07 | 0.07 | 63 | 1012.4 |
| 20260506220330 | 78 | 224 | 3.0 | 9.0 | 0.00 | 0.07 | 0.07 | 63 | 1012.3 |
| 20260506215828 | 79 | 245 | 2.0 | 6.0 | 0.00 | 0.07 | 0.07 | 64 | 1012.3 |
| 20260506215328 | 79 | 223 | 4.0 | 10.0 | 0.00 | 0.07 | 0.07 | 63 | 1012.3 |
| 20260506214829 | 79 | 309 | 5.0 | 10.0 | 0.00 | 0.07 | 0.07 | 63 | 1012.4 |
| 20260506214326 | 79 | 283 | 4.0 | 7.0 | 0.00 | 0.07 | 0.07 | 63 | 1012.6 |
| 20260506214053 | 79 | 212 | 5.0 | 9.0 | 0.00 | 0.07 | 0.07 | 63 | 1012.8 |
| 20260506213326 | 79 | 271 | 5.0 | 9.0 | 0.00 | 0.07 | 0.07 | 63 | 1012.8 |
| 20260506212826 | 79 | 306 | 4.0 | 9.0 | 0.00 | 0.07 | 0.07 | 63 | 1012.8 |
| 20260506212326 | 79 | 297 | 5.0 | 10.0 | 0.00 | 0.07 | 0.07 | 64 | 1012.6 |
| 20260506211826 | 78 | 251 | 5.0 | 10.0 | 0.00 | 0.07 | 0.07 | 63 | 1012.5 |
| 20260506211548 | 78 | 292 | 4.0 | 10.0 | 0.00 | 0.07 | 0.07 | 63 | 1012.7 |
| 20260506210828 | 79 | 296 | 3.0 | 9.0 | 0.00 | 0.07 | 0.07 | 63 | 1012.5 |
| 20260506210328 | 79 | 259 | 3.0 | 8.0 | 0.00 | 0.07 | 0.07 | 64 | 1012.5 |
| 20260506205829 | 79 | 235 | 3.0 | 8.0 | 0.00 | 0.07 | 0.07 | 63 | 1012.3 |
| 20260506205325 | 79 | 244 | 4.0 | 8.0 | 0.00 | 0.07 | 0.07 | 62 | 1012.3 |
| 20260506204828 | 79 | 238 | 5.0 | 10.0 | 0.00 | 0.07 | 0.07 | 63 | 1012.5 |
| 20260506204326 | 79 | 289 | 5.0 | 10.0 | 0.00 | 0.07 | 0.07 | 62 | 1012.6 |
| 20260506203824 | 79 | 297 | 5.0 | 10.0 | 0.00 | 0.07 | 0.07 | 62 | 1012.7 |
| 20260506203324 | 79 | 257 | 5.0 | 10.0 | 0.00 | 0.07 | 0.07 | 62 | 1012.6 |
| 20260506202826 | 80 | 316 | 4.0 | 10.0 | 0.00 | 0.07 | 0.07 | 61 | 1012.7 |
| 20260506202324 | 79 | 262 | 4.0 | 11.0 | 0.00 | 0.07 | 0.07 | 61 | 1012.6 |
| 20260506201825 | 79 | 301 | 5.0 | 11.0 | 0.00 | 0.07 | 0.07 | 61 | 1012.7 |
| 20260506201325 | 79 | 236 | 6.0 | 10.0 | 0.00 | 0.07 | 0.07 | 62 | 1012.7 |
| 20260506200821 | 79 | 231 | 5.0 | 10.0 | 0.00 | 0.07 | 0.07 | 63 | 1012.7 |
| 20260506200321 | 78 | 281 | 5.0 | 11.0 | 0.00 | 0.07 | 0.07 | 65 | 1012.7 |
| 20260506195822 | 78 | 269 | 5.0 | 11.0 | 0.00 | 0.07 | 0.07 | 63 | 1012.8 |
| 20260506195321 | 78 | 286 | 4.0 | 10.0 | 0.00 | 0.07 | 0.07 | 64 | 1012.9 |
| 20260506195052 | 78 | 261 | 4.0 | 9.0 | 0.00 | 0.07 | 0.07 | 67 | 1012.9 |
| 20260506194320 | 77 | 246 | 4.0 | 9.0 | 0.00 | 0.07 | 0.07 | 66 | 1013.0 |
| 20260506194047 | 77 | 215 | 3.0 | 8.0 | 0.00 | 0.07 | 0.07 | 69 | 1012.8 |
| 20260506193321 | 76 | 231 | 2.0 | 7.0 | 0.00 | 0.07 | 0.07 | 69 | 1012.9 |
| 20260506192821 | 76 | 196 | 2.0 | 7.0 | 0.00 | 0.07 | 0.07 | 72 | 1012.9 |
| 20260506192321 | 75 | 258 | 2.0 | 7.0 | 0.01 | 0.07 | 0.07 | 74 | 1012.9 |
| 20260506191821 | 75 | 236 | 3.0 | 9.0 | 0.03 | 0.07 | 0.07 | 74 | 1013.0 |
| 20260506191321 | 74 | 279 | 2.0 | 9.0 | 0.04 | 0.07 | 0.07 | 78 | 1013.1 |
| 20260506190821 | 74 | 271 | 1.0 | 8.0 | 0.04 | 0.07 | 0.07 | 82 | 1013.1 |
| 20260506190546 | 73 | 312 | 1.0 | 3.0 | 0.05 | 0.07 | 0.07 | 85 | 1013.2 |
| 20260506185820 | 73 | 312 | 1.0 | 3.0 | 0.07 | 0.07 | 0.07 | 84 | 1013.2 |
| 20260506185320 | 72 | 265 | 1.0 | 3.0 | 0.07 | 0.07 | 0.07 | 86 | 1013.3 |
| 20260506184820 | 72 | 264 | 1.0 | 3.0 | 0.07 | 0.07 | 0.07 | 86 | 1013.2 |
| 20260506184542 | 71 | 262 | 0.0 | 3.0 | 0.07 | 0.07 | 0.07 | 85 | 1013.3 |
| 20260506184046 | 71 | 261 | 0.0 | 1.0 | 0.07 | 0.07 | 0.07 | 85 | 1013.3 |
| 20260506183320 | 71 | 261 | 0.0 | 1.0 | 0.07 | 0.07 | 0.07 | 83 | 1013.3 |
| 20260506182820 | 71 | 261 | 0.0 | 2.0 | 0.07 | 0.07 | 0.07 | 83 | 1013.6 |
| 20260506182320 | 71 | 261 | 0.0 | 2.0 | 0.06 | 0.06 | 0.06 | 81 | 1013.5 |
| 20260506181817 | 71 | 260 | 1.0 | 3.0 | 0.04 | 0.04 | 0.05 | 79 | 1014.0 |
| 20260506181317 | 71 | 260 | 1.0 | 4.0 | 0.03 | 0.03 | 0.03 | 77 | 1014.5 |
| 20260506181045 | 72 | 196 | 2.0 | 4.0 | 0.03 | 0.03 | 0.03 | 76 | 1014.5 |
| 20260506180536 | 72 | 257 | 2.0 | 6.0 | 0.02 | 0.02 | 0.02 | 75 | 1015.3 |
| 20260506175812 | 72 | 265 | 3.0 | 8.0 | 0.00 | 0.00 | 0.00 | 72 | 1015.2 |
| 20260506174810 | 72 | 275 | 3.0 | 8.0 | 0.00 | 0.00 | 0.00 | 69 | 1015.3 |
| 20260506174310 | 72 | 292 | 4.0 | 9.0 | 0.00 | 0.00 | 0.00 | 69 | 1015.1 |
| 20260506173811 | 72 | 292 | 5.0 | 9.0 | 0.00 | 0.00 | 0.00 | 69 | 1015.4 |
| 20260506173310 | 73 | 268 | 4.0 | 9.0 | 0.00 | 0.00 | 0.00 | 69 | 1015.4 |
| 20260506172804 | 73 | 303 | 4.0 | 8.0 | 0.00 | 0.00 | 0.00 | 68 | 1015.3 |
| 20260506172258 | 73 | 277 | 4.0 | 9.0 | 0.00 | 0.00 | 0.00 | 68 | 1015.2 |
| 20260506171751 | 73 | 301 | 4.0 | 9.0 | 0.00 | 0.00 | 0.00 | 68 | 1015.4 |
| 20260506171246 | 73 | 308 | 6.0 | 13.0 | 0.00 | 0.00 | 0.00 | 69 | 1015.4 |
| 20260506170740 | 74 | 254 | 7.0 | 14.0 | 0.00 | 0.00 | 0.00 | 66 | 1015.4 |
| 20260506170234 | 74 | 255 | 7.0 | 14.0 | 0.00 | 0.00 | 0.00 | 66 | 1015.3 |
| 20260506170001 | 74 | 224 | 7.0 | 14.0 | 0.00 | 0.00 | 0.00 | 62 | 1015.4 |
| 20260506165222 | 75 | 285 | 6.0 | 14.0 | 0.00 | 0.00 | 0.00 | 61 | 1015.2 |
| 20260506164715 | 75 | 326 | 4.0 | 10.0 | 0.00 | 0.00 | 0.00 | 63 | 1015.3 |
| 20260506164209 | 75 | 236 | 3.0 | 8.0 | 0.00 | 0.00 | 0.00 | 64 | 1015.4 |
| 20260506163703 | 75 | 275 | 4.0 | 8.0 | 0.00 | 0.00 | 0.00 | 65 | 1015.4 |
| 20260506163422 | 75 | 266 | 5.0 | 9.0 | 0.00 | 0.00 | 0.00 | 64 | 1015.2 |
| 20260506162649 | 75 | 271 | 4.0 | 9.0 | 0.00 | 0.00 | 0.00 | 64 | 1015.4 |
| 20260506162144 | 75 | 305 | 5.0 | 11.0 | 0.00 | 0.00 | 0.00 | 66 | 1015.4 |
| 20260506161900 | 75 | 273 | 4.0 | 11.0 | 0.00 | 0.00 | 0.00 | 64 | 1015.1 |
| 20260506161131 | 75 | 260 | 4.0 | 8.0 | 0.00 | 0.00 | 0.00 | 65 | 1015.2 |
| 20260506160626 | 75 | 233 | 4.0 | 9.0 | 0.00 | 0.00 | 0.00 | 65 | 1015.1 |
| 20260506160120 | 75 | 257 | 3.0 | 9.0 | 0.00 | 0.00 | 0.00 | 65 | 1015.1 |
| 20260506155615 | 75 | 222 | 3.0 | 9.0 | 0.00 | 0.00 | 0.00 | 66 | 1015.2 |
| 20260506155109 | 75 | 255 | 4.0 | 10.0 | 0.00 | 0.00 | 0.00 | 65 | 1015.1 |
| 20260506154601 | 74 | 153 | 4.0 | 12.0 | 0.00 | 0.00 | 0.00 | 68 | 1015.2 |
| 20260506154056 | 74 | 270 | 4.0 | 12.0 | 0.00 | 0.00 | 0.00 | 68 | 1015.2 |
| 20260506153550 | 73 | 279 | 4.0 | 8.0 | 0.00 | 0.00 | 0.00 | 69 | 1015.1 |
| 20260506153044 | 73 | 230 | 4.0 | 12.0 | 0.00 | 0.00 | 0.00 | 71 | 1015.1 |
| 20260506152539 | 72 | 282 | 3.0 | 12.0 | 0.00 | 0.00 | 0.00 | 71 | 1015.0 |
| 20260506152031 | 71 | 315 | 4.0 | 9.0 | 0.00 | 0.00 | 0.00 | 72 | 1015.0 |
| 20260506151526 | 71 | 291 | 4.0 | 10.0 | 0.00 | 0.00 | 0.00 | 70 | 1015.0 |
| 20260506151020 | 71 | 211 | 4.0 | 10.0 | 0.00 | 0.00 | 0.00 | 71 | 1015.0 |
| 20260506150513 | 71 | 236 | 4.0 | 8.0 | 0.00 | 0.00 | 0.00 | 71 | 1014.9 |
| 20260506150008 | 71 | 243 | 4.0 | 10.0 | 0.00 | 0.00 | 0.00 | 71 | 1014.8 |
| 20260506145501 | 70 | 282 | 3.0 | 10.0 | 0.00 | 0.00 | 0.00 | 72 | 1014.7 |
| 20260506144956 | 70 | 281 | 2.0 | 7.0 | 0.00 | 0.00 | 0.00 | 72 | 1014.8 |
| 20260506144451 | 70 | 244 | 2.0 | 7.0 | 0.00 | 0.00 | 0.00 | 74 | 1014.7 |
| 20260506143944 | 70 | 259 | 3.0 | 8.0 | 0.00 | 0.00 | 0.00 | 73 | 1014.8 |
| 20260506143437 | 69 | 235 | 3.0 | 8.0 | 0.00 | 0.00 | 0.00 | 74 | 1014.9 |
| 20260506142645 | 69 | 188 | 3.0 | 9.0 | 0.00 | 0.00 | 0.00 | 75 | 1014.9 |
| 20260506141920 | 68 | 232 | 2.0 | 8.0 | 0.00 | 0.00 | 0.00 | 77 | 1014.9 |
| 20260506141413 | 68 | 241 | 2.0 | 6.0 | 0.00 | 0.00 | 0.00 | 77 | 1014.9 |
| 20260506140909 | 67 | 230 | 3.0 | 7.0 | 0.00 | 0.00 | 0.00 | 77 | 1014.9 |
| 20260506140401 | 67 | 278 | 3.0 | 7.0 | 0.00 | 0.00 | 0.00 | 77 | 1014.9 |
| 20260506135856 | 67 | 240 | 3.0 | 6.0 | 0.00 | 0.00 | 0.00 | 78 | 1014.9 |
| 20260506135349 | 67 | 185 | 2.0 | 5.0 | 0.00 | 0.00 | 0.00 | 78 | 1014.8 |
| 20260506134843 | 66 | 231 | 1.0 | 4.0 | 0.00 | 0.00 | 0.00 | 78 | 1014.6 |
| 20260506134338 | 66 | 210 | 2.0 | 4.0 | 0.00 | 0.00 | 0.00 | 79 | 1014.6 |
| 20260506134052 | 66 | 223 | 2.0 | 6.0 | 0.00 | 0.00 | 0.00 | 78 | 1014.7 |
| 20260506133326 | 66 | 288 | 2.0 | 6.0 | 0.00 | 0.00 | 0.00 | 79 | 1014.6 |
| 20260506132819 | 65 | 245 | 1.0 | 4.0 | 0.00 | 0.00 | 0.00 | 79 | 1014.8 |
| 20260506132314 | 65 | 250 | 2.0 | 4.0 | 0.00 | 0.00 | 0.00 | 79 | 1014.7 |
| 20260506131808 | 65 | 252 | 2.0 | 4.0 | 0.00 | 0.00 | 0.00 | 79 | 1014.6 |
| 20260506131302 | 65 | 276 | 1.0 | 4.0 | 0.00 | 0.00 | 0.00 | 79 | 1014.7 |
| 20260506131021 | 65 | 177 | 1.0 | 3.0 | 0.00 | 0.00 | 0.00 | 79 | 1014.7 |
| 20260506130250 | 65 | 184 | 1.0 | 4.0 | 0.00 | 0.00 | 0.00 | 79 | 1014.9 |
| 20260506125743 | 64 | 254 | 1.0 | 4.0 | 0.00 | 0.00 | 0.00 | 80 | 1015.1 |
| 20260506125500 | 64 | 261 | 2.0 | 7.0 | 0.00 | 0.00 | 0.00 | 80 | 1015.2 |
| 20260506124731 | 64 | 247 | 2.0 | 7.0 | 0.00 | 0.00 | 0.00 | 80 | 1015.1 |
| 20260506124226 | 64 | 190 | 2.0 | 5.0 | 0.00 | 0.00 | 0.00 | 80 | 1015.1 |
| 20260506123719 | 64 | 295 | 2.0 | 5.0 | 0.00 | 0.00 | 0.00 | 81 | 1014.9 |
| 20260506123214 | 64 | 267 | 1.0 | 3.0 | 0.00 | 0.00 | 0.00 | 81 | 1015.1 |
| 20260506122707 | 63 | 269 | 1.0 | 3.0 | 0.00 | 0.00 | 0.00 | 81 | 1015.2 |
| 20260506122203 | 63 | 267 | 2.0 | 4.0 | 0.00 | 0.00 | 0.00 | 81 | 1015.3 |
| 20260506121656 | 63 | 275 | 2.0 | 4.0 | 0.00 | 0.00 | 0.00 | 81 | 1015.6 |
| 20260506121413 | 63 | 281 | 2.0 | 4.0 | 0.00 | 0.00 | 0.00 | 81 | 1015.5 |
| 20260506120644 | 63 | 276 | 2.0 | 4.0 | 0.00 | 0.00 | 0.00 | 82 | 1015.4 |
| 20260506120137 | 63 | 269 | 2.0 | 4.0 | 0.00 | 0.00 | 0.00 | 81 | 1015.4 |
| 20260506115854 | 62 | 270 | 1.0 | 4.0 | 0.00 | 0.00 | 0.00 | 82 | 1015.2 |
| 20260506115125 | 62 | 291 | 1.0 | 3.0 | 0.00 | 0.00 | 0.00 | 81 | 1015.0 |
| 20260506114620 | 62 | 291 | 1.0 | 3.0 | 0.00 | 0.00 | 0.00 | 81 | 1014.9 |
| 20260506114113 | 62 | 290 | 1.0 | 3.0 | 0.00 | 0.00 | 0.00 | 81 | 1014.9 |
| 20260506113612 | 62 | 291 | 2.0 | 5.0 | 0.00 | 0.00 | 0.00 | 81 | 1014.7 |
| 20260506113111 | 62 | 186 | 2.0 | 5.0 | 0.00 | 0.00 | 0.00 | 81 | 1014.5 |
| 20260506112609 | 62 | 270 | 2.0 | 4.0 | 0.00 | 0.00 | 0.00 | 81 | 1014.6 |
| 20260506112108 | 62 | 245 | 2.0 | 3.0 | 0.00 | 0.00 | 0.00 | 81 | 1014.5 |
| 20260506111608 | 62 | 250 | 1.0 | 3.0 | 0.00 | 0.00 | 0.00 | 81 | 1014.4 |
| 20260506111108 | 62 | 244 | 2.0 | 6.0 | 0.00 | 0.00 | 0.00 | 81 | 1014.1 |
| 20260506110104 | 62 | 305 | 1.0 | 3.0 | 0.00 | 0.00 | 0.00 | 80 | 1014.0 |
| 20260506105603 | 62 | 306 | 1.0 | 8.0 | 0.00 | 0.00 | 0.00 | 80 | 1014.0 |
| 20260506105104 | 62 | 306 | 2.0 | 8.0 | 0.00 | 0.00 | 0.00 | 80 | 1014.0 |
| 20260506104827 | 62 | 239 | 2.0 | 4.0 | 0.00 | 0.00 | 0.00 | 80 | 1014.0 |
| 20260506104102 | 62 | 279 | 1.0 | 3.0 | 0.00 | 0.00 | 0.00 | 80 | 1013.9 |
| 20260506103600 | 62 | 236 | 2.0 | 4.0 | 0.00 | 0.00 | 0.00 | 80 | 1013.7 |
| 20260506103100 | 62 | 234 | 1.0 | 4.0 | 0.00 | 0.00 | 0.00 | 79 | 1013.7 |
| 20260506102558 | 62 | 244 | 1.0 | 3.0 | 0.00 | 0.00 | 0.00 | 79 | 1013.6 |
| 20260506102058 | 62 | 292 | 1.0 | 4.0 | 0.00 | 0.00 | 0.00 | 79 | 1013.7 |
| 20260506101558 | 62 | 286 | 2.0 | 5.0 | 0.00 | 0.00 | 0.00 | 78 | 1013.7 |
| 20260506101058 | 62 | 218 | 2.0 | 5.0 | 0.00 | 0.00 | 0.00 | 78 | 1013.7 |
| 20260506100552 | 62 | 252 | 2.0 | 5.0 | 0.00 | 0.00 | 0.00 | 78 | 1013.8 |
| 20260506100048 | 62 | 261 | 2.0 | 5.0 | 0.00 | 0.00 | 0.00 | 78 | 1013.9 |
| 20260506095548 | 62 | 288 | 2.0 | 5.0 | 0.00 | 0.00 | 0.00 | 78 | 1013.9 |
| 20260506095048 | 62 | 272 | 2.0 | 4.0 | 0.00 | 0.00 | 0.00 | 78 | 1013.8 |
| 20260506094546 | 62 | 263 | 2.0 | 5.0 | 0.00 | 0.00 | 0.00 | 78 | 1013.8 |
| 20260506094046 | 63 | 254 | 2.0 | 6.0 | 0.00 | 0.00 | 0.00 | 78 | 1013.9 |
| 20260506093546 | 63 | 288 | 1.0 | 6.0 | 0.00 | 0.00 | 0.00 | 78 | 1013.9 |
| 20260506093046 | 63 | 190 | 1.0 | 3.0 | 0.00 | 0.00 | 0.00 | 77 | 1014.1 |
| 20260506092546 | 63 | 227 | 1.0 | 3.0 | 0.00 | 0.00 | 0.00 | 77 | 1014.3 |
| 20260506092313 | 63 | 240 | 1.0 | 3.0 | 0.00 | 0.00 | 0.00 | 77 | 1014.3 |
| 20260506091548 | 63 | 240 | 2.0 | 7.0 | 0.00 | 0.00 | 0.00 | 77 | 1014.3 |
| 20260506091046 | 63 | 240 | 2.0 | 7.0 | 0.00 | 0.00 | 0.00 | 77 | 1014.4 |
| 20260506090046 | 63 | 273 | 2.0 | 5.0 | 0.00 | 0.00 | 0.00 | 76 | 1014.5 |
| 20260506085544 | 64 | 313 | 2.0 | 5.0 | 0.00 | 0.00 | 0.00 | 76 | 1014.4 |
| 20260506085044 | 64 | 271 | 2.0 | 4.0 | 0.00 | 0.00 | 0.00 | 76 | 1014.4 |
| 20260506084543 | 64 | 217 | 2.0 | 4.0 | 0.00 | 0.00 | 0.00 | 76 | 1014.7 |
| 20260506084044 | 64 | 252 | 2.0 | 5.0 | 0.00 | 0.00 | 0.00 | 76 | 1014.7 |
| 20260506083543 | 64 | 256 | 2.0 | 5.0 | 0.00 | 0.00 | 0.00 | 75 | 1014.7 |
| 20260506083043 | 64 | 259 | 2.0 | 5.0 | 0.00 | 0.00 | 0.00 | 75 | 1014.7 |
| 20260506082544 | 64 | 244 | 2.0 | 10.0 | 0.00 | 0.00 | 0.00 | 75 | 1014.6 |
| 20260506082043 | 64 | 161 | 2.0 | 10.0 | 0.00 | 0.00 | 0.00 | 75 | 1014.7 |
| 20260506081543 | 64 | 240 | 1.0 | 7.0 | 0.00 | 0.00 | 0.00 | 75 | 1014.8 |
| 20260506081044 | 64 | 267 | 2.0 | 7.0 | 0.00 | 0.00 | 0.00 | 75 | 1014.9 |
| 20260506080539 | 64 | 289 | 2.0 | 7.0 | 0.00 | 0.00 | 0.00 | 74 | 1014.9 |
| 20260506073039 | 64 | 275 | 2.0 | 8.0 | 0.00 | 0.00 | 0.00 | 75 | 1014.7 |
| 20260506072540 | 64 | 250 | 1.0 | 7.0 | 0.00 | 0.00 | 0.00 | 74 | 1014.7 |
| 20260506072039 | 64 | 301 | 1.0 | 6.0 | 0.00 | 0.00 | 0.00 | 74 | 1014.7 |
| 20260506071539 | 64 | 234 | 1.0 | 6.0 | 0.00 | 0.00 | 0.00 | 74 | 1014.6 |
| 20260506071040 | 64 | 340 | 2.0 | 9.0 | 0.00 | 0.00 | 0.00 | 74 | 1014.5 |
| 20260506070540 | 64 | 234 | 1.0 | 9.0 | 0.00 | 0.00 | 0.00 | 74 | 1014.4 |
| 20260506062024 | 65 | 275 | 1.0 | 6.0 | 0.00 | 0.00 | 0.00 | 72 | 1015.1 |
| 20260506061522 | 65 | 275 | 1.0 | 6.0 | 0.00 | 0.00 | 0.00 | 72 | 1015.0 |
| 20260506061021 | 65 | 73 | 1.0 | 6.0 | 0.00 | 0.00 | 0.00 | 72 | 1015.2 |
| 20260506060520 | 65 | 263 | 1.0 | 4.0 | 0.00 | 0.00 | 0.00 | 72 | 1015.1 |
| 20260506051009 | 66 | 213 | 2.0 | 9.0 | 0.00 | 0.00 | 0.00 | 69 | 1015.3 |
| 20260506050724 | 66 | 252 | 1.0 | 7.0 | 0.00 | 0.00 | 0.00 | 68 | 1015.4 |
| 20260506044955 | 67 | 257 | 2.0 | 10.0 | 0.00 | 0.00 | 0.00 | 67 | 1015.3 |
| 20260506044456 | 67 | 304 | 2.0 | 10.0 | 0.00 | 0.00 | 0.00 | 67 | 1015.4 |
| 20260506043955 | 67 | 304 | 2.0 | 8.0 | 0.00 | 0.00 | 0.00 | 67 | 1015.4 |
| 20260506043453 | 67 | 214 | 2.0 | 6.0 | 0.00 | 0.00 | 0.00 | 66 | 1015.3 |
| 20260506042953 | 67 | 123 | 2.0 | 9.0 | 0.00 | 0.00 | 0.00 | 66 | 1015.3 |
| 20260506042453 | 67 | 231 | 2.0 | 10.0 | 0.00 | 0.00 | 0.00 | 66 | 1015.3 |
| 20260506042215 | 67 | 140 | 2.0 | 8.0 | 0.00 | 0.00 | 0.00 | 65 | 1015.2 |
| 20260506041454 | 68 | 47 | 2.0 | 12.0 | 0.00 | 0.00 | 0.00 | 65 | 1015.1 |
| 20260506040951 | 68 | 227 | 2.0 | 12.0 | 0.00 | 0.00 | 0.00 | 65 | 1015.1 |
| 20260506040449 | 68 | 225 | 1.0 | 7.0 | 0.00 | 0.00 | 0.00 | 64 | 1015.0 |
| 20260506035950 | 68 | 228 | 1.0 | 7.0 | 0.00 | 0.00 | 0.00 | 64 | 1015.1 |
| 20260506035447 | 68 | 161 | 2.0 | 8.0 | 0.00 | 0.00 | 0.00 | 64 | 1015.1 |
| 20260506034946 | 68 | 200 | 1.0 | 8.0 | 0.00 | 0.00 | 0.00 | 63 | 1015.0 |
| 20260506034446 | 68 | 299 | 1.0 | 7.0 | 0.00 | 0.00 | 0.00 | 63 | 1015.1 |
| 20260506033946 | 68 | 164 | 2.0 | 9.0 | 0.00 | 0.00 | 0.00 | 63 | 1015.2 |
| 20260506033446 | 68 | 267 | 1.0 | 9.0 | 0.00 | 0.00 | 0.00 | 63 | 1015.1 |
| 20260506032944 | 68 | 66 | 1.0 | 9.0 | 0.00 | 0.00 | 0.00 | 63 | 1015.0 |
| 20260506032442 | 69 | 67 | 2.0 | 9.0 | 0.00 | 0.00 | 0.00 | 62 | 1015.0 |
| 20260506032204 | 69 | 255 | 1.0 | 7.0 | 0.00 | 0.00 | 0.00 | 62 | 1014.8 |
| 20260506031443 | 69 | 300 | 2.0 | 7.0 | 0.00 | 0.00 | 0.00 | 61 | 1014.8 |
| 20260506030940 | 69 | 203 | 2.0 | 7.0 | 0.00 | 0.00 | 0.00 | 61 | 1014.9 |
| 20260506030438 | 69 | 144 | 2.0 | 9.0 | 0.00 | 0.00 | 0.00 | 61 | 1014.8 |
| 20260506025938 | 69 | 241 | 1.0 | 9.0 | 0.00 | 0.00 | 0.00 | 61 | 1014.9 |
| 20260506025438 | 69 | 211 | 1.0 | 8.0 | 0.00 | 0.00 | 0.00 | 61 | 1014.7 |
| 20260506025157 | 68 | 51 | 1.0 | 3.0 | 0.00 | 0.00 | 0.00 | 60 | 1014.7 |
| 20260506024702 | 68 | 250 | 1.0 | 6.0 | 0.00 | 0.00 | 0.00 | 60 | 1014.8 |
| 20260506023937 | 68 | 26 | 1.0 | 6.0 | 0.00 | 0.00 | 0.00 | 60 | 1014.9 |
| 20260506023437 | 68 | 355 | 1.0 | 3.0 | 0.00 | 0.00 | 0.00 | 60 | 1015.0 |
| 20260506022933 | 67 | 26 | 1.0 | 4.0 | 0.00 | 0.00 | 0.00 | 60 | 1014.9 |
| 20260506022434 | 67 | 284 | 1.0 | 4.0 | 0.00 | 0.00 | 0.00 | 60 | 1014.9 |
| 20260506021933 | 67 | 270 | 0.0 | 3.0 | 0.00 | 0.00 | 0.00 | 59 | 1014.9 |
| 20260506021433 | 67 | 349 | 0.0 | 3.0 | 0.00 | 0.00 | 0.00 | 58 | 1015.0 |
| 20260506020933 | 67 | 238 | 0.0 | 1.0 | 0.00 | 0.00 | 0.00 | 57 | 1015.0 |
| 20260506020433 | 67 | 196 | 0.0 | 0.0 | 0.00 | 0.00 | 0.00 | 57 | 1015.0 |
| 20260506020148 | 68 | 197 | 0.0 | 0.0 | 0.00 | 0.00 | 0.00 | 56 | 1014.9 |